Time;durP1;ratioP1;P1;durP2;ratioP2;P2;SDS_P1;SDS_P2;PMS_P1;PMS_P2;Temp;Humidity;BMP_temperature;BMP_pressure;BME280_temperature;BME280_humidity;BME280_pressure;Samples;Min_cycle;Max_cycle;Signal;HPM_P1;HPM_P2
2021/03/02 00:02:04;;;;;;;173.93;79.90;;;;;;;-1.95;83.74;99925.09;1755630;80;21953;-72
2021/03/02 00:04:30;;;;;;;122.55;55.55;;;;;;;-1.93;83.52;99919.13;1755402;80;21090;-71
2021/03/02 00:06:57;;;;;;;144.37;62.60;;;;;;;-1.94;82.64;99924.59;1785914;80;21118;-71
2021/03/02 00:09:23;;;;;;;149.93;69.27;;;;;;;-2.00;83.17;99924.70;1785886;79;20999;-72
2021/03/02 00:11:50;;;;;;;128.35;54.88;;;;;;;-2.00;83.78;99934.84;1785887;80;21163;-72
2021/03/02 00:14:19;;;;;;;118.95;56.33;;;;;;;-1.93;83.31;99931.08;1785778;79;21129;-72
2021/03/02 00:16:56;;;;;;;101.78;47.10;;;;;;;-1.97;83.48;99931.03;1785911;80;21071;-72
2021/03/02 00:19:34;;;;;;;122.82;59.23;;;;;;;-1.94;84.20;99933.90;1791895;78;21082;-70
2021/03/02 00:22:22;;;;;;;140.97;65.10;;;;;;;-1.87;83.58;99932.30;1771468;79;21126;-71
2021/03/02 00:24:52;;;;;;;139.68;64.35;;;;;;;-1.87;84.06;99933.14;1734600;79;21420;-71
2021/03/02 00:27:19;;;;;;;123.18;58.40;;;;;;;-1.90;83.72;99928.60;1797817;79;21194;-71
2021/03/02 00:29:45;;;;;;;128.97;58.90;;;;;;;-1.88;83.15;99934.59;1797660;78;21412;-72
2021/03/02 00:32:11;;;;;;;135.95;66.22;;;;;;;-1.93;83.60;99931.58;1797373;79;21106;-72
2021/03/02 00:34:37;;;;;;;140.20;64.12;;;;;;;-2.02;83.57;99926.19;1797223;78;21058;-72
2021/03/02 00:37:04;;;;;;;144.35;67.87;;;;;;;-2.03;83.18;99929.01;1797316;79;21106;-72
2021/03/02 00:39:30;;;;;;;125.90;61.63;;;;;;;-2.08;82.97;99927.28;1797279;78;21160;-72
2021/03/02 00:41:56;;;;;;;130.67;60.20;;;;;;;-2.11;82.95;99931.09;1797185;79;21106;-71
2021/03/02 00:44:23;;;;;;;127.47;57.50;;;;;;;-2.13;82.47;99936.22;1797212;78;21141;-72
2021/03/02 00:46:49;;;;;;;126.35;58.87;;;;;;;-2.18;82.37;99931.35;1797263;79;21146;-72
2021/03/02 00:49:15;;;;;;;120.60;53.92;;;;;;;-2.22;82.12;99930.00;1770653;79;21093;-72
2021/03/02 00:51:41;;;;;;;128.57;59.60;;;;;;;-2.32;83.03;99924.73;1797392;79;22034;-72
2021/03/02 00:54:07;;;;;;;129.60;64.07;;;;;;;-2.38;83.44;99928.02;1797127;78;21031;-72
2021/03/02 00:56:33;;;;;;;134.80;56.30;;;;;;;-2.34;83.13;99924.55;1797391;79;21490;-72
2021/03/02 00:58:59;;;;;;;123.75;55.92;;;;;;;-2.32;82.69;99923.41;1797154;78;21794;-72
2021/03/02 01:01:26;;;;;;;113.83;55.52;;;;;;;-2.36;83.35;99921.22;1797279;79;21149;-72
2021/03/02 01:03:52;;;;;;;116.40;56.63;;;;;;;-2.39;83.31;99920.20;1797215;78;21241;-72
2021/03/02 01:06:18;;;;;;;123.05;55.25;;;;;;;-2.39;83.31;99911.74;1797260;79;21133;-72
2021/03/02 01:08:44;;;;;;;122.72;54.90;;;;;;;-2.40;83.69;99914.52;1797193;78;21047;-71
2021/03/02 01:11:10;;;;;;;117.60;52.50;;;;;;;-2.39;83.61;99910.41;1797343;79;21141;-72
2021/03/02 01:13:36;;;;;;;118.05;56.88;;;;;;;-2.39;82.80;99906.92;1797289;78;21264;-72
2021/03/02 01:16:04;;;;;;;117.55;54.05;;;;;;;-2.39;82.71;99905.59;1797332;79;21279;-71
2021/03/02 01:18:30;;;;;;;110.48;52.58;;;;;;;-2.41;82.92;99903.56;1796334;78;21131;-72
2021/03/02 01:20:56;;;;;;;102.47;51.05;;;;;;;-2.42;82.70;99892.60;1785259;80;21107;-72
2021/03/02 01:23:23;;;;;;;117.77;52.48;;;;;;;-2.44;82.70;99899.39;1785182;79;21130;-72
2021/03/02 01:25:49;;;;;;;105.72;51.13;;;;;;;-2.45;82.63;99893.75;1785261;80;21110;-72
2021/03/02 01:28:15;;;;;;;96.53;52.65;;;;;;;-2.51;82.81;99893.02;1785271;79;21245;-71
2021/03/02 01:30:41;;;;;;;111.60;53.80;;;;;;;-2.53;82.83;99893.66;1785254;80;21118;-72
2021/03/02 01:33:07;;;;;;;104.58;48.40;;;;;;;-2.52;82.74;99891.34;1785198;80;21134;-72
2021/03/02 01:35:33;;;;;;;107.45;53.40;;;;;;;-2.49;82.46;99896.84;1785178;79;21539;-72
2021/03/02 01:38:00;;;;;;;102.85;49.03;;;;;;;-2.56;82.81;99895.30;1785282;80;21503;-71
2021/03/02 01:40:26;;;;;;;111.62;49.93;;;;;;;-2.56;82.24;99892.16;1785197;80;22115;-72
2021/03/02 01:42:52;;;;;;;98.80;47.75;;;;;;;-2.63;83.08;99892.91;1785140;80;21002;-72
2021/03/02 01:45:20;;;;;;;108.12;51.95;;;;;;;-2.60;82.41;99888.61;1785249;79;21055;-72
2021/03/02 01:47:49;;;;;;;101.72;46.25;;;;;;;-2.63;82.03;99891.57;1785289;80;21067;-72
2021/03/02 01:50:15;;;;;;;90.72;45.80;;;;;;;-2.67;82.41;99888.36;1785187;79;21016;-72
2021/03/02 01:52:41;;;;;;;87.82;43.17;;;;;;;-2.70;82.88;99887.84;1785237;80;22073;-72
2021/03/02 01:55:08;;;;;;;97.33;47.65;;;;;;;-2.67;83.74;99885.70;1785116;79;21023;-72
2021/03/02 01:57:34;;;;;;;110.37;51.40;;;;;;;-2.62;83.44;99890.58;1754789;80;21102;-72
2021/03/02 02:00:04;;;;;;;100.12;46.75;;;;;;;-2.65;82.81;99881.11;1785109;79;21511;-71
2021/03/02 02:03:24;;;;;;;92.60;45.50;;;;;;;-2.70;82.18;99877.23;1785167;80;21158;-72
2021/03/02 02:06:12;;;;;;;106.95;45.80;;;;;;;-2.80;82.21;99881.27;1785248;80;22109;-71
2021/03/02 02:08:57;;;;;;;;;;;;;;;-2.78;82.87;99870.50;1760563;79;21435;-72
2021/03/02 02:11:38;;;;;;;125.45;56.95;;;;;;;-2.61;83.04;99877.16;1785232;80;20143;-72
2021/03/02 02:14:26;;;;;;;91.80;41.20;;;;;;;-2.47;83.36;99873.66;1784630;79;21063;-71
2021/03/02 02:16:55;;;;;;;;;;;;;;;-2.30;83.19;99873.66;1760735;80;21484;-70
2021/03/02 02:19:36;;;;;;;63.48;31.40;;;;;;;-2.27;84.12;99868.03;1785272;79;21460;-71
2021/03/02 02:22:25;;;;;;;97.40;40.05;;;;;;;-2.22;84.36;99866.26;1785000;80;21118;-71
2021/03/02 02:25:18;;;;;;;127.67;54.05;;;;;;;-2.18;84.57;99862.29;1785056;79;21125;-72
2021/03/02 02:27:51;;;;;;;119.20;55.08;;;;;;;-2.25;85.26;99853.75;1785226;80;21078;-71
2021/03/02 02:30:17;;;;;;;114.35;51.73;;;;;;;-2.31;85.33;99854.73;1785241;79;21435;-72
2021/03/02 02:32:45;;;;;;;113.30;51.00;;;;;;;-2.33;84.01;99859.83;1785290;80;21256;-72
2021/03/02 02:35:13;;;;;;;113.72;52.40;;;;;;;-2.41;83.70;99859.26;1785041;79;21118;-72
2021/03/02 02:37:39;;;;;;;116.50;50.52;;;;;;;-2.51;84.21;99855.84;1785260;79;21083;-72
2021/03/02 02:40:13;;;;;;;92.33;44.20;;;;;;;-2.54;84.31;99857.48;1785060;79;21153;-72
2021/03/02 02:42:42;;;;;;;106.58;48.52;;;;;;;-2.57;83.58;99847.98;1754797;80;21091;-71
2021/03/02 02:45:09;;;;;;;115.47;50.33;;;;;;;-2.70;83.67;99852.84;1785331;79;22300;-71
2021/03/02 02:47:35;;;;;;;119.82;51.08;;;;;;;-2.72;84.48;99847.36;1785102;80;21071;-71
2021/03/02 02:50:03;;;;;;;111.52;47.38;;;;;;;-2.74;84.80;99846.16;1785121;79;21078;-71
2021/03/02 02:52:29;;;;;;;102.22;46.77;;;;;;;-2.68;85.35;99854.84;1785169;80;21480;-71
2021/03/02 02:54:55;;;;;;;102.32;47.17;;;;;;;-2.64;85.26;99844.30;1785130;79;21043;-71
2021/03/02 02:57:21;;;;;;;99.00;43.25;;;;;;;-2.63;86.08;99847.28;1785276;80;21207;-71
2021/03/02 02:59:47;;;;;;;108.45;50.10;;;;;;;-2.58;85.25;99845.48;1785020;79;21031;-71
2021/03/02 03:02:20;;;;;;;111.55;50.43;;;;;;;-2.56;85.53;99847.03;1785159;80;21138;-71
2021/03/02 03:04:50;;;;;;;102.35;49.85;;;;;;;-2.48;84.74;99842.75;1755139;80;21026;-71
2021/03/02 03:07:25;;;;;;;103.27;43.50;;;;;;;-2.42;85.48;99844.31;1785198;80;21051;-71
2021/03/02 03:09:52;;;;;;;87.67;41.77;;;;;;;-2.38;84.73;99840.39;1784972;79;21466;-72
2021/03/02 03:12:18;;;;;;;83.87;36.05;;;;;;;-2.33;84.60;99843.89;1785118;80;21067;-72
2021/03/02 03:14:50;;;;;;;96.63;41.08;;;;;;;-2.30;84.14;99839.63;1785110;79;21019;-72
2021/03/02 03:17:16;;;;;;;83.52;37.00;;;;;;;-2.36;83.99;99841.06;1785242;80;21095;-72
2021/03/02 03:19:42;;;;;;;91.70;41.70;;;;;;;-2.37;84.33;99839.39;1785124;79;21106;-72
2021/03/02 03:22:08;;;;;;;92.25;41.60;;;;;;;-2.31;84.78;99837.93;1785272;80;21262;-72
2021/03/02 03:24:35;;;;;;;76.02;37.05;;;;;;;-2.29;84.79;99836.81;1785051;79;21039;-72
2021/03/02 03:27:01;;;;;;;83.67;37.80;;;;;;;-2.29;84.58;99826.69;1785309;80;21477;-72
2021/03/02 03:29:27;;;;;;;77.10;34.65;;;;;;;-2.30;84.99;99835.64;1754681;80;21023;-72
2021/03/02 03:31:53;;;;;;;78.50;34.55;;;;;;;-2.24;84.58;99827.53;1785193;80;21538;-72
2021/03/02 03:34:19;;;;;;;74.45;37.17;;;;;;;-2.21;84.81;99823.27;1785061;79;21260;-72
2021/03/02 03:36:45;;;;;;;77.20;40.95;;;;;;;-2.20;84.83;99829.74;1785165;80;21142;-72
2021/03/02 03:39:12;;;;;;;73.00;32.53;;;;;;;-2.16;84.36;99828.44;1785046;79;21118;-72
2021/03/02 03:41:39;;;;;;;84.42;36.55;;;;;;;-2.15;84.45;99826.11;1785117;80;21079;-72
2021/03/02 03:44:05;;;;;;;84.03;39.23;;;;;;;-2.17;84.37;99830.75;1755000;80;21011;-72
2021/03/02 03:46:31;;;;;;;82.45;38.08;;;;;;;-2.23;84.13;99828.70;1785155;79;21235;-72
2021/03/02 03:48:58;;;;;;;82.08;40.88;;;;;;;-2.23;83.55;99823.89;1785072;79;21396;-72
2021/03/02 03:51:26;;;;;;;78.07;35.88;;;;;;;-2.33;84.07;99825.30;1785084;80;21494;-72
2021/03/02 03:53:52;;;;;;;73.37;31.60;;;;;;;-2.37;83.61;99828.77;1785119;79;21157;-72
2021/03/02 03:56:19;;;;;;;84.52;35.55;;;;;;;-2.38;83.82;99831.59;1785138;80;21016;-72
2021/03/02 03:58:45;;;;;;;94.15;39.20;;;;;;;-2.42;83.63;99828.38;1785157;79;22018;-72
2021/03/02 04:01:11;;;;;;;80.40;36.98;;;;;;;-2.53;84.62;99823.31;1785041;80;21476;-72
2021/03/02 04:03:38;;;;;;;76.87;34.00;;;;;;;-2.54;84.12;99827.45;1785123;79;21035;-72
2021/03/02 04:06:04;;;;;;;89.05;39.48;;;;;;;-2.57;84.28;99823.27;1785183;80;21519;-72
2021/03/02 04:08:30;;;;;;;89.20;37.63;;;;;;;-2.64;85.28;99824.38;1785401;79;21499;-72
2021/03/02 04:10:58;;;;;;;107.85;46.60;;;;;;;-2.62;84.74;99819.75;1785259;80;21539;-72
2021/03/02 04:13:25;;;;;;;101.92;49.20;;;;;;;-2.67;84.94;99824.67;1785279;79;21119;-72
2021/03/02 04:15:52;;;;;;;109.15;51.65;;;;;;;-2.66;84.29;99829.48;1755059;80;21542;-72
2021/03/02 04:18:18;;;;;;;105.37;46.92;;;;;;;-2.68;83.83;99815.53;1785323;79;21546;-72
2021/03/02 04:20:46;;;;;;;105.95;46.95;;;;;;;-2.77;83.62;99824.41;1785263;79;21020;-72
2021/03/02 04:23:12;;;;;;;92.20;39.35;;;;;;;-2.90;83.73;99822.12;1785393;79;21475;-72
2021/03/02 04:25:38;;;;;;;104.85;47.13;;;;;;;-2.96;84.03;99820.90;1785196;80;21044;-72
2021/03/02 04:28:05;;;;;;;123.35;52.48;;;;;;;-3.00;84.58;99822.16;1785264;80;21498;-72
2021/03/02 04:30:33;;;;;;;154.42;61.33;;;;;;;-3.01;84.59;99819.66;1785214;79;21071;-72
2021/03/02 04:32:59;;;;;;;169.72;71.57;;;;;;;-3.00;84.48;99824.81;1785386;79;21099;-72
2021/03/02 04:35:26;;;;;;;315.50;127.45;;;;;;;-3.19;84.40;99823.61;1785171;79;21194;-72
2021/03/02 04:37:52;;;;;;;160.90;74.22;;;;;;;-3.24;85.13;99823.23;1785243;80;21520;-72
2021/03/02 04:40:18;;;;;;;129.95;59.85;;;;;;;-3.20;84.73;99825.92;1785169;79;21039;-72
2021/03/02 04:42:44;;;;;;;84.07;38.33;;;;;;;-3.31;84.19;99830.10;1785330;80;21130;-72
2021/03/02 04:45:12;;;;;;;85.42;36.98;;;;;;;-3.30;84.01;99830.45;1785183;79;21102;-72
2021/03/02 04:47:40;;;;;;;97.55;42.58;;;;;;;-3.33;83.56;99821.44;1785249;80;21183;-72
2021/03/02 04:50:08;;;;;;;81.70;39.53;;;;;;;-3.48;84.06;99826.41;1785411;79;21059;-72
2021/03/02 04:52:34;;;;;;;68.85;34.33;;;;;;;-3.41;84.06;99834.13;1785351;80;21487;-72
2021/03/02 04:55:00;;;;;;;148.32;59.23;;;;;;;-3.39;83.63;99830.00;1785181;79;21035;-72
2021/03/02 04:57:26;;;;;;;335.63;116.75;;;;;;;-3.48;84.67;99832.55;1785240;80;21142;-72
2021/03/02 04:59:52;;;;;;;268.60;103.58;;;;;;;-3.45;83.96;99836.22;1785185;79;21192;-72
2021/03/02 05:02:18;;;;;;;148.05;64.72;;;;;;;-3.50;83.71;99832.36;1785229;80;21534;-72
2021/03/02 05:04:45;;;;;;;111.97;48.98;;;;;;;-3.48;83.40;99831.71;1785253;79;21026;-72
2021/03/02 05:07:11;;;;;;;113.60;49.33;;;;;;;-3.54;83.10;99835.77;1785318;80;21130;-72
2021/03/02 05:09:37;;;;;;;103.83;45.03;;;;;;;-3.60;83.05;99832.36;1785261;79;21436;-72
2021/03/02 05:12:04;;;;;;;89.20;37.35;;;;;;;-3.62;83.02;99836.15;1785233;80;21263;-72
2021/03/02 05:14:30;;;;;;;97.00;45.52;;;;;;;-3.66;83.06;99838.27;1754822;80;21129;-72
2021/03/02 05:16:56;;;;;;;117.10;43.90;;;;;;;-3.78;82.92;99833.61;1785216;80;21413;-72
2021/03/02 05:19:22;;;;;;;110.83;45.15;;;;;;;-3.81;83.07;99838.38;1785173;79;21118;-72
2021/03/02 05:21:48;;;;;;;96.95;43.05;;;;;;;-3.85;83.17;99843.10;1795710;79;21026;-72
2021/03/02 05:24:14;;;;;;;106.37;50.03;;;;;;;-3.81;83.11;99843.67;1797260;78;21193;-72
2021/03/02 05:26:40;;;;;;;115.08;55.10;;;;;;;-3.85;82.95;99843.59;1797230;79;21110;-72
2021/03/02 05:29:07;;;;;;;113.40;51.18;;;;;;;-3.88;83.27;99835.45;1797296;78;21058;-72
2021/03/02 05:31:33;;;;;;;132.03;73.50;;;;;;;-3.84;83.34;99834.70;1797282;79;21118;-72
2021/03/02 05:33:59;;;;;;;113.62;55.00;;;;;;;-3.77;83.10;99843.72;1797209;78;21010;-72
2021/03/02 05:36:25;;;;;;;111.03;49.93;;;;;;;-3.81;83.57;99836.55;1797158;79;22135;-72
2021/03/02 05:38:52;;;;;;;106.97;47.05;;;;;;;-3.72;83.62;99840.99;1797126;78;21144;-72
2021/03/02 05:41:18;;;;;;;142.43;70.28;;;;;;;-3.75;83.47;99839.97;1797195;79;21038;-72
2021/03/02 05:43:44;;;;;;;127.87;60.28;;;;;;;-3.71;82.81;99847.13;1797200;78;21054;-72
2021/03/02 05:46:10;;;;;;;93.35;42.00;;;;;;;-3.78;84.07;99839.40;1797276;79;21523;-72
2021/03/02 05:48:41;;;;;;;119.67;56.73;;;;;;;-3.73;83.08;99835.35;1797256;78;21130;-72
2021/03/02 05:51:08;;;;;;;91.35;42.10;;;;;;;-3.78;83.01;99840.23;1797107;79;21121;-72
2021/03/02 05:53:37;;;;;;;118.60;54.83;;;;;;;-3.76;82.92;99841.41;1797246;78;21191;-72
2021/03/02 05:56:06;;;;;;;154.65;65.55;;;;;;;-3.73;82.86;99842.47;1797348;79;21118;-72
2021/03/02 05:58:33;;;;;;;90.92;37.08;;;;;;;-3.75;83.01;99841.78;1797426;78;26382;-72
2021/03/02 06:00:59;;;;;;;216.73;100.02;;;;;;;-3.74;82.79;99840.31;1770619;79;21090;-72
2021/03/02 06:03:25;;;;;;;149.15;67.92;;;;;;;-3.79;83.59;99841.22;1797087;78;21121;-72
2021/03/02 06:05:52;;;;;;;166.73;73.22;;;;;;;-3.73;83.54;99838.00;1797249;79;21542;-72
2021/03/02 06:08:18;;;;;;;122.62;53.02;;;;;;;-3.64;83.66;99846.90;1797124;78;21102;-72
2021/03/02 06:10:44;;;;;;;89.67;43.00;;;;;;;-3.56;83.76;99841.71;1797177;79;21066;-72
2021/03/02 06:13:10;;;;;;;117.53;52.33;;;;;;;-3.41;83.08;99844.73;1770646;79;21144;-72
2021/03/02 06:15:53;;;;;;;107.87;50.28;;;;;;;-3.44;83.15;99847.16;1797168;79;21085;-72
2021/03/02 06:18:20;;;;;;;94.65;42.15;;;;;;;-3.42;83.91;99847.87;1797236;78;21106;-71
2021/03/02 06:20:47;;;;;;;109.52;52.85;;;;;;;-3.25;84.17;99842.75;1792847;78;21035;-71
2021/03/02 06:23:29;;;;;;;111.10;50.67;;;;;;;-3.20;84.38;99846.64;1785269;79;21510;-71
2021/03/02 06:26:14;;;;;;;159.15;72.17;;;;;;;-3.08;83.58;99843.29;1785272;80;22015;-71
2021/03/02 06:28:44;;;;;;;212.12;94.45;;;;;;;-3.05;84.10;99846.16;1785088;79;21054;-71
2021/03/02 06:31:32;;;;;;;194.57;88.03;;;;;;;-2.80;83.72;99845.94;1785133;80;21086;-71
2021/03/02 06:34:13;;;;;;;137.77;63.42;;;;;;;-2.60;83.16;99849.63;1784876;79;21031;-71
2021/03/02 06:36:42;;;;;;;136.43;66.28;;;;;;;-2.49;83.25;99846.40;1785176;80;21127;-71
2021/03/02 06:39:31;;;;;;;164.55;78.78;;;;;;;-2.40;83.12;99846.31;1785310;79;21255;-71
2021/03/02 06:42:20;;;;;;;155.50;67.87;;;;;;;-2.29;82.89;99844.78;1785203;80;21439;-71
2021/03/02 06:44:53;;;;;;;183.65;81.78;;;;;;;-1.96;82.68;99842.88;1785272;79;21039;-70
2021/03/02 06:47:37;;;;;;;129.25;57.40;;;;;;;-1.89;82.53;99837.26;1785149;80;21039;-71
2021/03/02 06:50:12;;;;;;;125.15;57.83;;;;;;;-1.71;82.83;99832.26;1784450;79;21107;-71
2021/03/02 06:52:42;;;;;;;112.92;53.70;;;;;;;-1.62;82.79;99830.48;1785191;80;22115;-72
2021/03/02 06:55:22;;;;;;;153.00;72.70;;;;;;;-1.49;82.54;99833.53;1785017;79;21051;-72
2021/03/02 06:57:49;;;;;;;141.47;64.80;;;;;;;-1.35;82.59;99831.28;1785212;79;21079;-71
2021/03/02 07:00:17;;;;;;;188.90;88.65;;;;;;;-1.23;82.37;99836.14;1785037;79;21114;-71
2021/03/02 07:02:44;;;;;;;156.57;72.78;;;;;;;-1.15;82.43;99833.52;1755067;80;21079;-71
2021/03/02 07:05:16;;;;;;;126.02;59.13;;;;;;;-1.03;82.32;99830.05;1785130;79;22227;-71
2021/03/02 07:07:44;;;;;;;118.57;54.42;;;;;;;-0.81;81.94;99830.47;1785189;80;21145;-71
2021/03/02 07:10:13;;;;;;;104.38;47.23;;;;;;;-0.68;82.17;99825.52;1785099;79;21118;-71
2021/03/02 07:12:42;;;;;;;;;;;;;;;-0.53;81.82;99825.19;1787600;80;21079;-71
2021/03/02 07:15:13;;;;;;;78.87;35.48;;;;;;;-0.44;81.63;99824.70;1785196;79;20470;-72
2021/03/02 07:17:44;;;;;;;98.47;44.45;;;;;;;0.02;80.73;99824.55;1785251;80;21916;-73
2021/03/02 07:20:18;;;;;;;79.67;38.02;;;;;;;0.12;79.73;99816.38;1784985;79;21094;-71
2021/03/02 07:22:50;;;;;;;90.85;41.25;;;;;;;0.43;80.60;99811.98;1785192;80;21468;-71
2021/03/02 07:25:22;;;;;;;116.50;51.58;;;;;;;0.48;79.38;99804.78;1785115;79;21043;-72
2021/03/02 07:27:51;;;;;;;86.28;44.38;;;;;;;1.25;79.10;99811.11;1785148;80;21066;-71
2021/03/02 07:30:19;;;;;;;91.32;55.03;;;;;;;2.47;77.47;99810.58;1784440;79;22109;-72
2021/03/02 07:32:45;;;;;;;77.12;43.85;;;;;;;3.39;75.40;99804.23;1785056;80;21062;-72
2021/03/02 07:35:18;;;;;;;76.50;42.67;;;;;;;4.56;73.35;99801.91;1785229;79;21118;-72
2021/03/02 07:37:44;;;;;;;84.07;46.00;;;;;;;5.06;71.26;99799.89;1785126;80;21519;-72
2021/03/02 07:40:14;;;;;;;81.78;46.28;;;;;;;5.38;69.58;99802.36;1754652;80;21122;-72
2021/03/02 07:42:40;;;;;;;72.50;44.85;;;;;;;6.03;66.13;99798.66;1785331;79;21186;-70
2021/03/02 07:45:17;;;;;;;70.92;44.00;;;;;;;6.48;66.72;99796.44;1785307;79;21023;-70
2021/03/02 07:47:47;;;;;;;77.75;46.42;;;;;;;7.07;60.58;99795.44;1784953;80;21147;-71
2021/03/02 07:50:21;;;;;;;71.97;45.50;;;;;;;6.82;60.18;99795.02;1785334;79;21121;-71
2021/03/02 07:52:47;;;;;;;64.53;42.15;;;;;;;7.49;61.42;99792.33;1785349;80;21546;-70
2021/03/02 07:55:21;;;;;;;71.45;46.98;;;;;;;7.95;60.86;99789.83;1785280;79;21187;-70
2021/03/02 07:57:48;;;;;;;71.45;46.35;;;;;;;8.33;61.21;99793.26;1784569;80;21046;-71
2021/03/02 08:00:21;;;;;;;74.15;46.92;;;;;;;9.21;59.35;99796.16;1785307;79;21075;-71
2021/03/02 08:03:25;;;;;;;85.03;49.45;;;;;;;9.31;57.92;99784.27;1785391;80;21424;-71
2021/03/02 08:06:03;;;;;;;63.38;40.25;;;;;;;9.98;55.01;99789.55;1785376;80;21256;-71
2021/03/02 08:08:30;;;;;;;53.95;37.17;;;;;;;10.05;52.63;99791.09;1780986;79;21193;-71
2021/03/02 08:10:58;;;;;;;54.40;36.40;;;;;;;9.07;53.38;99788.77;1785270;80;21593;-71
2021/03/02 08:13:41;;;;;;;56.58;36.50;;;;;;;8.15;56.89;99783.77;1785374;79;21095;-71
2021/03/02 08:16:08;;;;;;;66.90;42.17;;;;;;;7.17;58.39;99781.50;1785260;80;21019;-70
2021/03/02 08:18:37;;;;;;;56.70;33.45;;;;;;;6.71;60.25;99785.21;1785558;79;21174;-71
2021/03/02 08:21:19;;;;;;;58.20;36.57;;;;;;;6.14;61.43;99780.54;1785417;79;21202;-70
2021/03/02 08:23:52;;;;;;;59.38;38.48;;;;;;;6.68;61.70;99764.61;1785277;79;21093;-70
2021/03/02 08:26:29;;;;;;;59.98;35.68;;;;;;;6.68;61.70;99764.61;1785290;80;21087;-71
2021/03/02 08:29:15;;;;;;;53.48;33.75;;;;;;;8.63;57.68;99771.80;1785362;79;21478;-73
2021/03/02 08:31:47;;;;;;;70.65;44.85;;;;;;;10.65;52.80;99765.16;1785279;80;21078;-71
2021/03/02 08:34:16;;;;;;;45.10;30.30;;;;;;;11.64;51.01;99766.86;1785252;79;21512;-71
2021/03/02 08:36:42;;;;;;;48.08;31.80;;;;;;;12.56;51.88;99761.86;1785154;80;21086;-72
2021/03/02 08:39:13;;;;;;;43.83;30.05;;;;;;;13.75;50.69;99760.27;1785233;79;21392;-72
2021/03/02 08:41:42;;;;;;;42.95;32.20;;;;;;;15.00;49.29;99757.89;1785178;80;21162;-71
2021/03/02 08:44:22;;;;;;;50.73;35.50;;;;;;;16.05;46.85;99757.05;1785439;79;21007;-71
2021/03/02 08:46:50;;;;;;;43.68;30.57;;;;;;;17.14;45.00;99749.18;1785224;80;21183;-73
2021/03/02 08:49:16;;;;;;;39.63;30.30;;;;;;;18.40;42.70;99751.34;1785503;79;21058;-73
2021/03/02 08:51:42;;;;;;;37.20;28.32;;;;;;;18.44;40.62;99759.80;1785214;80;21082;-73
2021/03/02 08:54:09;;;;;;;41.15;28.57;;;;;;;18.77;40.98;99760.31;1785331;79;21020;-73
2021/03/02 08:56:35;;;;;;;37.30;26.48;;;;;;;19.79;39.18;99754.88;1785226;80;21024;-73
2021/03/02 08:59:06;;;;;;;27.50;21.25;;;;;;;20.50;36.86;99757.84;1785223;79;21935;-73
2021/03/02 09:01:34;;;;;;;28.60;21.60;;;;;;;21.68;34.90;99759.03;1785268;80;21086;-73
2021/03/02 09:04:16;;;;;;;35.00;22.37;;;;;;;20.12;27.74;99757.67;1785213;79;21082;-73
2021/03/02 09:06:46;;;;;;;28.40;19.50;;;;;;;17.72;33.77;99762.33;1785227;80;21087;-71
2021/03/02 09:09:17;;;;;;;28.35;20.57;;;;;;;16.18;39.25;99761.72;1785278;79;21538;-71
2021/03/02 09:11:49;;;;;;;28.15;19.50;;;;;;;14.95;40.32;99764.69;1785258;80;21248;-71
2021/03/02 09:14:17;;;;;;;30.40;20.23;;;;;;;13.98;42.11;99766.76;1785225;79;21063;-71
2021/03/02 09:19:40;;;;;;;34.30;20.97;;;;;;;12.60;44.24;99758.91;1886091;76;22453;-71
2021/03/02 09:22:09;;;;;;;40.30;22.02;;;;;;;11.80;43.81;99760.66;1784862;80;20992;-71
2021/03/02 09:24:40;;;;;;;39.18;22.32;;;;;;;11.16;45.20;99758.08;1788600;80;21539;-71
2021/03/02 09:27:10;;;;;;;31.52;19.42;;;;;;;10.70;45.61;99749.55;1784725;80;21129;-70
2021/03/02 09:29:49;;;;;;;42.20;22.05;;;;;;;10.32;46.12;99758.16;1788465;80;21523;-71
2021/03/02 09:32:17;;;;;;;33.60;18.75;;;;;;;9.99;47.04;99754.10;1784752;80;20939;-71
2021/03/02 09:34:47;;;;;;;30.45;18.50;;;;;;;9.70;47.22;99749.59;1757702;80;21062;-71
2021/03/02 09:37:18;;;;;;;36.00;19.50;;;;;;;9.47;47.57;99748.45;1754086;80;21114;-70
2021/03/02 09:40:05;;;;;;;31.77;17.75;;;;;;;9.35;48.09;99754.90;1788320;80;21039;-71
2021/03/02 09:42:33;;;;;;;28.52;16.40;;;;;;;9.19;49.11;99754.47;1784828;80;21050;-70
2021/03/02 09:45:16;;;;;;;34.65;19.05;;;;;;;9.08;48.87;99751.73;1788515;80;21087;-70
2021/03/02 09:47:43;;;;;;;38.10;19.10;;;;;;;9.02;49.34;99754.28;1784745;80;21027;-71
2021/03/02 09:50:18;;;;;;;31.73;18.27;;;;;;;9.01;49.57;99755.86;1788284;80;21201;-71
2021/03/02 09:52:50;;;;;;;46.00;23.67;;;;;;;8.98;49.63;99756.33;1784699;80;21047;-72
2021/03/02 09:55:24;;;;;;;35.88;22.07;;;;;;;8.88;51.57;99750.08;1788397;80;21126;-70
2021/03/02 09:58:11;;;;;;;33.83;21.20;;;;;;;8.95;51.73;99750.00;1784804;80;21122;-70
2021/03/02 10:00:48;;;;;;;39.10;22.52;;;;;;;8.96;51.37;99753.00;1788356;80;21166;-71
2021/03/02 10:03:25;;;;;;;44.80;23.87;;;;;;;8.88;51.58;99750.08;1784796;80;22132;-71
2021/03/02 10:05:59;;;;;;;49.98;28.12;;;;;;;8.83;51.84;99754.53;1788322;80;21105;-70
2021/03/02 10:08:36;;;;;;;48.35;30.12;;;;;;;8.81;52.31;99749.35;1784774;80;21434;-71
2021/03/02 10:11:17;;;;;;;52.20;31.97;;;;;;;8.79;52.56;99750.08;1788392;80;21071;-70
2021/03/02 10:13:52;;;;;;;43.08;25.08;;;;;;;8.79;52.74;99750.08;1784723;80;21011;-72
2021/03/02 10:16:37;;;;;;;43.00;24.87;;;;;;;8.79;52.51;99746.03;1788340;80;21499;-70
2021/03/02 10:19:19;;;;;;;36.83;20.88;;;;;;;8.81;51.64;99743.95;1784486;80;21019;-70
2021/03/02 10:21:50;;;;;;;44.60;22.20;;;;;;;8.85;52.47;99742.43;1788445;80;21091;-70
2021/03/02 10:24:35;;;;;;;43.45;22.13;;;;;;;8.88;52.47;99742.49;1784656;80;21122;-70
2021/03/02 10:27:18;;;;;;;40.30;21.77;;;;;;;8.91;52.70;99740.70;1788485;80;21468;-71
2021/03/02 10:29:46;;;;;;;35.15;20.23;;;;;;;8.94;52.59;99742.42;1784458;80;21208;-71
2021/03/02 10:32:12;;;;;;;38.85;24.12;;;;;;;9.00;52.80;99743.40;1787728;80;21107;-71
2021/03/02 10:34:40;;;;;;;41.37;23.30;;;;;;;9.05;52.59;99740.29;1784095;80;21487;-71
2021/03/02 10:37:08;;;;;;;38.27;23.20;;;;;;;9.12;52.51;99733.45;1787990;80;21099;-71
2021/03/02 10:39:35;;;;;;;47.53;22.62;;;;;;;9.20;52.84;99735.84;1784068;80;21779;-71
2021/03/02 10:42:02;;;;;;;40.50;25.55;;;;;;;9.30;52.51;99739.34;1787817;80;21483;-71
2021/03/02 10:44:28;;;;;;;49.35;28.32;;;;;;;9.37;52.48;99733.84;1784109;80;21090;-70
2021/03/02 10:46:54;;;;;;;65.80;34.98;;;;;;;9.45;52.78;99730.81;1787776;80;21067;-71
2021/03/02 10:49:21;;;;;;;66.02;36.48;;;;;;;9.54;52.82;99734.30;1784070;80;21051;-71
2021/03/02 10:51:48;;;;;;;58.02;34.50;;;;;;;9.66;52.65;99729.47;1787775;80;21079;-70
2021/03/02 10:54:15;;;;;;;55.58;33.65;;;;;;;9.71;52.76;99719.58;1784153;80;22054;-71
2021/03/02 10:56:41;;;;;;;59.95;34.88;;;;;;;9.80;52.64;99718.70;1787770;80;21139;-71
2021/03/02 10:59:07;;;;;;;61.35;33.73;;;;;;;9.84;52.65;99716.67;1784135;80;21534;-71
2021/03/02 11:01:33;;;;;;;59.63;32.42;;;;;;;9.87;52.56;99712.13;1787698;80;21126;-71
2021/03/02 11:04:00;;;;;;;60.50;33.18;;;;;;;9.91;52.47;99712.47;1784201;80;21094;-71
2021/03/02 11:06:29;;;;;;;61.77;34.45;;;;;;;9.97;52.64;99712.89;1756903;80;21122;-71
2021/03/02 11:08:56;;;;;;;73.25;38.42;;;;;;;9.96;50.57;99703.66;1784009;80;21130;-71
2021/03/02 11:11:23;;;;;;;84.75;47.03;;;;;;;10.04;51.53;99706.02;1787701;80;21563;-71
2021/03/02 11:13:50;;;;;;;100.90;55.75;;;;;;;10.06;52.18;99708.78;1784073;80;21091;-71
2021/03/02 11:16:16;;;;;;;96.47;54.20;;;;;;;10.09;53.11;99694.78;1787821;80;21165;-70
2021/03/02 11:18:42;;;;;;;109.30;55.75;;;;;;;10.16;53.92;99682.45;1783963;80;21277;-71
2021/03/02 11:21:11;;;;;;;102.70;56.40;;;;;;;10.16;53.92;99682.45;1787662;80;21003;-71
2021/03/02 11:23:40;;;;;;;103.62;57.00;;;;;;;10.13;53.92;99678.88;1784142;80;21066;-71
2021/03/02 11:26:07;;;;;;;108.87;59.47;;;;;;;10.19;54.33;99686.06;1787328;80;21126;-71
2021/03/02 11:28:34;;;;;;;110.25;56.60;;;;;;;10.17;54.81;99676.00;1784059;80;21346;-71
2021/03/02 11:31:01;;;;;;;107.22;56.28;;;;;;;10.17;54.81;99676.00;1787735;80;21249;-71
2021/03/02 11:33:27;;;;;;;99.22;56.45;;;;;;;10.28;54.68;99675.72;1784085;80;21118;-71